Time;durP1;ratioP1;P1;durP2;ratioP2;P2;SDS_P1;SDS_P2;PMS_P1;PMS_P2;Temp;Humidity;BMP_temperature;BMP_pressure;BME280_temperature;BME280_humidity;BME280_pressure;Samples;Min_cycle;Max_cycle;Signal;HPM_P1;HPM_P2
2023/04/05 00:00:39;;;;;;;45.45;38.00;;;;;;;;;;4985985;28;20190;-51
2023/04/05 00:03:05;;;;;;;47.05;37.50;;;;;;;;;;4986770;28;20189;-51
2023/04/05 00:05:33;;;;;;;44.40;37.17;;;;;;;;;;4993386;28;20200;-51
2023/04/05 00:07:59;;;;;;;44.88;35.65;;;;;;;;;;4993815;28;20184;-51
2023/04/05 00:10:25;;;;;;;38.97;33.83;;;;;;;;;;4995006;28;20340;-51
2023/04/05 00:12:52;;;;;;;42.38;34.67;;;;;;;;;;4993538;28;20208;-51
2023/04/05 00:15:18;;;;;;;38.30;33.38;;;;;;;;;;4989364;28;20204;-51
2023/04/05 00:17:47;;;;;;;40.80;33.58;;;;;;;;;;4987173;28;20181;-51
2023/04/05 00:20:13;;;;;;;41.55;32.97;;;;;;;;;;4993815;28;20568;-51
2023/04/05 00:22:41;;;;;;;39.05;31.67;;;;;;;;;;4987046;28;20658;-51
2023/04/05 00:25:08;;;;;;;38.28;30.23;;;;;;;;;;4994592;28;20181;-51
2023/04/05 00:27:34;;;;;;;35.00;30.30;;;;;;;;;;4991688;28;20193;-51
2023/04/05 00:30:00;;;;;;;37.60;31.33;;;;;;;;;;4990706;28;20219;-51
2023/04/05 00:32:26;;;;;;;36.63;29.33;;;;;;;;;;4983099;28;20178;-51
2023/04/05 00:34:52;;;;;;;33.60;28.10;;;;;;;;;;4986794;28;20490;-51
2023/04/05 00:37:17;;;;;;;34.55;28.58;;;;;;;;;;4986970;28;20193;-51
2023/04/05 00:39:44;;;;;;;32.47;26.98;;;;;;;;;;4993549;28;20197;-51
2023/04/05 00:42:10;;;;;;;33.47;27.42;;;;;;;;;;4988830;28;20216;-51
2023/04/05 00:44:36;;;;;;;32.17;27.25;;;;;;;;;;4990495;28;20214;-51
2023/04/05 00:47:06;;;;;;;30.60;25.75;;;;;;;;;;4994160;28;20181;-51
2023/04/05 00:49:33;;;;;;;32.55;26.52;;;;;;;;;;4990125;28;20220;-51
2023/04/05 00:51:59;;;;;;;29.77;24.63;;;;;;;;;;4994182;28;20181;-51
2023/04/05 00:54:27;;;;;;;28.40;24.70;;;;;;;;;;4993984;28;20181;-51
2023/04/05 00:56:53;;;;;;;29.80;24.40;;;;;;;;;;4993239;28;20227;-51
2023/04/05 00:59:20;;;;;;;29.42;23.70;;;;;;;;;;4993470;28;20263;-51
2023/04/05 01:01:53;;;;;;;29.35;23.85;;;;;;;;;;4984234;28;20801;-51
2023/04/05 01:04:20;;;;;;;27.75;23.60;;;;;;;;;;4993358;28;20174;-51
2023/04/05 01:06:49;;;;;;;28.65;23.13;;;;;;;;;;4988883;28;20272;-51
2023/04/05 01:09:32;;;;;;;28.05;23.17;;;;;;;;;;4989936;28;20281;-51
2023/04/05 01:11:59;;;;;;;25.75;21.73;;;;;;;;;;4992964;28;20287;-51
2023/04/05 01:14:25;;;;;;;23.50;20.52;;;;;;;;;;4994125;28;20196;-51
2023/04/05 01:16:56;;;;;;;25.67;21.92;;;;;;;;;;4997305;28;20177;-51
2023/04/05 01:19:23;;;;;;;26.27;21.70;;;;;;;;;;4996807;28;20201;-52
2023/04/05 01:22:12;;;;;;;23.88;20.73;;;;;;;;;;4995719;28;20185;-51
2023/04/05 01:24:49;;;;;;;23.92;20.60;;;;;;;;;;4996862;28;20449;-51
2023/04/05 01:27:35;;;;;;;23.88;20.50;;;;;;;;;;4993390;28;20181;-51
2023/04/05 01:30:07;;;;;;;21.90;18.23;;;;;;;;;;4997117;28;20221;-51
2023/04/05 01:32:46;;;;;;;22.70;19.17;;;;;;;;;;4988903;28;20185;-51
2023/04/05 01:35:24;;;;;;;21.52;18.67;;;;;;;;;;5007570;28;20221;-51
2023/04/05 01:37:55;;;;;;;20.95;17.92;;;;;;;;;;4994905;28;20192;-51
2023/04/05 01:40:22;;;;;;;20.30;17.50;;;;;;;;;;4996476;28;20181;-52
2023/04/05 01:42:47;;;;;;;21.17;17.05;;;;;;;;;;4997155;28;20189;-54
2023/04/05 01:45:13;;;;;;;19.42;16.60;;;;;;;;;;4996436;28;20497;-51
2023/04/05 01:47:40;;;;;;;19.60;17.50;;;;;;;;;;4997087;28;20193;-51
2023/04/05 01:50:06;;;;;;;18.73;16.70;;;;;;;;;;4996636;28;20287;-51
2023/04/05 01:52:32;;;;;;;18.58;15.35;;;;;;;;;;4996384;28;20774;-51
2023/04/05 01:54:58;;;;;;;19.35;16.77;;;;;;;;;;4996771;28;20298;-51
2023/04/05 01:57:24;;;;;;;19.30;16.17;;;;;;;;;;4996090;28;20185;-51
2023/04/05 01:59:50;;;;;;;18.92;15.40;;;;;;;;;;4996845;28;20556;-51
2023/04/05 02:02:15;;;;;;;18.23;15.27;;;;;;;;;;4996956;28;20185;-51
2023/04/05 02:04:42;;;;;;;17.88;15.57;;;;;;;;;;4995766;28;20185;-51
2023/04/05 02:07:08;;;;;;;17.65;15.38;;;;;;;;;;4993694;28;20224;-51
2023/04/05 02:09:34;;;;;;;17.67;14.68;;;;;;;;;;4985774;28;20232;-51
2023/04/05 02:12:00;;;;;;;16.80;13.90;;;;;;;;;;4992648;28;20489;-51
2023/04/05 02:14:26;;;;;;;16.35;13.90;;;;;;;;;;4996465;28;20264;-51
2023/04/05 02:16:55;;;;;;;17.80;14.23;;;;;;;;;;4993570;28;20284;-51
2023/04/05 02:19:22;;;;;;;15.32;13.60;;;;;;;;;;4989778;28;20256;-51
2023/04/05 02:21:48;;;;;;;15.85;13.68;;;;;;;;;;4995951;28;20189;-52
2023/04/05 02:24:14;;;;;;;15.05;12.82;;;;;;;;;;4991550;28;20192;-52
2023/04/05 02:26:40;;;;;;;15.23;13.07;;;;;;;;;;4992561;28;20173;-51
2023/04/05 02:29:06;;;;;;;14.75;12.27;;;;;;;;;;4989071;28;20197;-51
2023/04/05 02:31:32;;;;;;;15.30;12.43;;;;;;;;;;4991733;28;20220;-51
2023/04/05 02:33:59;;;;;;;13.75;12.20;;;;;;;;;;4989375;28;20202;-51
2023/04/05 02:36:27;;;;;;;13.18;11.63;;;;;;;;;;4990704;28;20173;-51
2023/04/05 02:38:53;;;;;;;13.40;11.82;;;;;;;;;;4993933;28;20197;-51
2023/04/05 02:41:19;;;;;;;13.35;11.05;;;;;;;;;;4990302;28;20199;-52
2023/04/05 02:43:45;;;;;;;13.20;11.82;;;;;;;;;;4993428;28;20209;-51
2023/04/05 02:46:11;;;;;;;12.77;11.02;;;;;;;;;;4992424;28;20189;-51
2023/04/05 02:48:37;;;;;;;13.80;11.40;;;;;;;;;;4998138;28;20181;-51
2023/04/05 02:51:03;;;;;;;14.32;11.55;;;;;;;;;;4994629;28;20525;-52
2023/04/05 02:53:29;;;;;;;12.13;10.80;;;;;;;;;;4992855;28;20192;-51
2023/04/05 02:55:56;;;;;;;12.00;10.50;;;;;;;;;;4994144;28;20556;-51
2023/04/05 02:58:22;;;;;;;12.38;10.70;;;;;;;;;;4995279;28;20173;-51
2023/04/05 03:00:50;;;;;;;11.43;9.90;;;;;;;;;;4994056;28;20631;-52
2023/04/05 03:03:19;;;;;;;12.52;10.60;;;;;;;;;;4994752;28;20184;-52
2023/04/05 03:05:46;;;;;;;12.65;10.25;;;;;;;;;;4994564;28;20185;-51
2023/04/05 03:08:18;;;;;;;12.07;9.90;;;;;;;;;;4997285;28;20186;-52
2023/04/05 03:10:47;;;;;;;12.95;10.15;;;;;;;;;;4988986;28;20201;-51
2023/04/05 03:13:14;;;;;;;11.38;9.80;;;;;;;;;;4991473;28;20205;-51
2023/04/05 03:15:40;;;;;;;10.02;8.85;;;;;;;;;;4993685;28;20176;-51
2023/04/05 03:18:06;;;;;;;11.48;9.27;;;;;;;;;;5003347;28;20228;-52
2023/04/05 03:20:39;;;;;;;9.82;8.82;;;;;;;;;;4994423;28;20596;-52
2023/04/05 03:23:06;;;;;;;10.48;9.02;;;;;;;;;;4988644;28;20192;-51
2023/04/05 03:25:33;;;;;;;10.68;8.60;;;;;;;;;;4990341;28;20208;-51
2023/04/05 03:27:59;;;;;;;10.50;8.40;;;;;;;;;;4989734;28;20188;-50
2023/04/05 03:30:25;;;;;;;11.95;8.23;;;;;;;;;;4991429;28;20209;-52
2023/04/05 03:32:51;;;;;;;12.05;8.45;;;;;;;;;;4992448;28;20185;-52
2023/04/05 03:35:18;;;;;;;12.55;9.15;;;;;;;;;;4993470;28;20181;-53
2023/04/05 03:37:44;;;;;;;13.75;8.57;;;;;;;;;;4992918;28;20191;-53
2023/04/05 03:40:11;;;;;;;11.60;7.82;;;;;;;;;;4994222;28;20456;-53
2023/04/05 03:42:37;;;;;;;12.75;8.43;;;;;;;;;;4995019;28;20177;-52
2023/04/05 03:45:04;;;;;;;13.43;7.28;;;;;;;;;;4995510;28;20196;-52
2023/04/05 03:47:30;;;;;;;15.10;8.63;;;;;;;;;;5002987;28;20228;-53
2023/04/05 03:49:56;;;;;;;22.13;8.93;;;;;;;;;;4994735;28;20230;-53
2023/04/05 03:52:22;;;;;;;18.70;8.77;;;;;;;;;;4994238;28;20289;-53
2023/04/05 03:54:48;;;;;;;20.45;9.85;;;;;;;;;;4993661;28;20247;-53
2023/04/05 03:57:14;;;;;;;17.83;9.10;;;;;;;;;;4994736;28;20602;-52
2023/04/05 03:59:40;;;;;;;17.67;8.70;;;;;;;;;;4995089;28;20192;-54
2023/04/05 04:02:06;;;;;;;17.73;9.35;;;;;;;;;;4993141;28;20239;-53
2023/04/05 04:04:32;;;;;;;19.48;8.30;;;;;;;;;;4994097;28;20560;-53
2023/04/05 04:06:58;;;;;;;18.45;8.02;;;;;;;;;;4994151;28;20200;-53
2023/04/05 04:09:24;;;;;;;17.00;8.35;;;;;;;;;;4990600;28;20193;-53
2023/04/05 04:11:50;;;;;;;20.17;9.23;;;;;;;;;;4986111;28;20219;-53
2023/04/05 04:14:16;;;;;;;16.35;8.05;;;;;;;;;;4982284;28;20304;-53
2023/04/05 04:16:42;;;;;;;16.10;7.10;;;;;;;;;;4989177;28;20200;-53
2023/04/05 04:19:07;;;;;;;14.23;7.25;;;;;;;;;;5001860;28;20176;-53
2023/04/05 04:21:34;;;;;;;17.35;7.80;;;;;;;;;;4992440;28;20630;-52
2023/04/05 04:24:00;;;;;;;13.57;7.00;;;;;;;;;;4992830;28;20264;-53
2023/04/05 04:26:27;;;;;;;14.85;7.88;;;;;;;;;;4989759;28;20300;-53
2023/04/05 04:28:54;;;;;;;13.90;7.15;;;;;;;;;;4991722;28;20186;-53
2023/04/05 04:31:22;;;;;;;14.25;7.35;;;;;;;;;;4992228;28;20589;-53
2023/04/05 04:33:49;;;;;;;13.35;7.13;;;;;;;;;;4994221;28;20235;-53
2023/04/05 04:36:16;;;;;;;13.95;6.80;;;;;;;;;;4991640;28;20188;-53
2023/04/05 04:38:43;;;;;;;9.75;6.70;;;;;;;;;;4993393;28;20235;-53
2023/04/05 04:41:13;;;;;;;12.65;7.07;;;;;;;;;;4991737;28;20228;-53
2023/04/05 04:43:42;;;;;;;10.80;6.00;;;;;;;;;;4992017;28;20192;-53
2023/04/05 04:46:17;;;;;;;12.07;5.85;;;;;;;;;;4991693;28;20212;-53
2023/04/05 04:48:45;;;;;;;7.85;5.78;;;;;;;;;;4990333;28;20548;-53
2023/04/05 04:51:11;;;;;;;10.80;6.03;;;;;;;;;;4994457;28;20231;-53
2023/04/05 04:53:37;;;;;;;9.05;6.10;;;;;;;;;;4995252;28;20264;-53
2023/04/05 04:56:09;;;;;;;10.02;5.68;;;;;;;;;;4995090;28;20267;-53
2023/04/05 04:58:35;;;;;;;11.43;5.57;;;;;;;;;;4997677;28;20231;-53
2023/04/05 05:01:01;;;;;;;8.65;5.70;;;;;;;;;;4992058;28;20273;-53
2023/04/05 05:03:27;;;;;;;8.75;5.10;;;;;;;;;;4997081;28;20197;-53
2023/04/05 05:05:53;;;;;;;12.75;5.82;;;;;;;;;;4991160;28;20200;-53
2023/04/05 05:08:19;;;;;;;7.93;5.05;;;;;;;;;;4996120;28;20276;-53
2023/04/05 05:10:45;;;;;;;10.02;5.60;;;;;;;;;;4994508;28;20212;-53
2023/04/05 05:13:11;;;;;;;10.60;5.28;;;;;;;;;;4994886;28;20286;-53
2023/04/05 05:15:40;;;;;;;10.32;5.25;;;;;;;;;;4997520;28;20184;-53
2023/04/05 05:18:07;;;;;;;7.07;5.03;;;;;;;;;;4998564;28;20638;-53
2023/04/05 05:20:33;;;;;;;7.32;4.53;;;;;;;;;;4992137;28;20186;-53
2023/04/05 05:23:00;;;;;;;7.78;4.53;;;;;;;;;;4987765;28;20272;-53
2023/04/05 05:25:26;;;;;;;6.68;4.53;;;;;;;;;;4994239;28;20482;-53
2023/04/05 05:27:52;;;;;;;12.80;4.63;;;;;;;;;;4992630;28;20213;-53
2023/04/05 05:30:19;;;;;;;8.50;4.88;;;;;;;;;;4996577;28;20255;-53
2023/04/05 05:32:45;;;;;;;9.50;4.80;;;;;;;;;;4997269;28;20491;-53
2023/04/05 05:35:11;;;;;;;6.75;4.35;;;;;;;;;;4995321;28;20243;-53
2023/04/05 05:37:37;;;;;;;8.80;4.65;;;;;;;;;;4996793;28;20196;-53
2023/04/05 05:40:06;;;;;;;7.32;4.03;;;;;;;;;;4997083;28;20688;-52
2023/04/05 05:42:32;;;;;;;8.18;4.70;;;;;;;;;;4997453;28;20188;-53
2023/04/05 05:45:01;;;;;;;5.95;4.10;;;;;;;;;;4996719;28;20189;-53
2023/04/05 05:47:27;;;;;;;5.97;4.15;;;;;;;;;;5016617;28;20172;-53
2023/04/05 05:49:53;;;;;;;6.80;4.38;;;;;;;;;;4998339;28;20602;-53
2023/04/05 05:52:19;;;;;;;8.18;4.28;;;;;;;;;;4992782;28;20213;-53
2023/04/05 05:54:46;;;;;;;7.47;4.50;;;;;;;;;;4994780;28;20216;-53
2023/04/05 05:57:12;;;;;;;6.65;4.35;;;;;;;;;;4994873;28;20200;-52
2023/04/05 05:59:37;;;;;;;4.53;3.80;;;;;;;;;;4996050;28;20189;-52
2023/04/05 06:02:03;;;;;;;5.35;3.92;;;;;;;;;;4992386;28;20529;-52
2023/04/05 06:04:30;;;;;;;6.55;3.90;;;;;;;;;;4994827;28;20197;-52
2023/04/05 06:06:56;;;;;;;4.90;4.10;;;;;;;;;;4995522;28;20242;-53
2023/04/05 06:09:22;;;;;;;7.18;4.25;;;;;;;;;;4991117;28;20185;-53
2023/04/05 06:11:51;;;;;;;7.13;4.00;;;;;;;;;;4988249;28;20177;-53
2023/04/05 06:14:17;;;;;;;4.03;3.63;;;;;;;;;;4995816;28;20190;-53
2023/04/05 06:16:43;;;;;;;6.05;4.07;;;;;;;;;;4995651;28;20185;-53
2023/04/05 06:19:08;;;;;;;5.90;3.88;;;;;;;;;;4995646;28;20706;-53
2023/04/05 06:21:35;;;;;;;5.32;3.65;;;;;;;;;;4988269;28;20188;-53
2023/04/05 06:24:00;;;;;;;5.18;3.75;;;;;;;;;;4996202;28;20223;-53
2023/04/05 06:26:28;;;;;;;4.95;3.42;;;;;;;;;;4989081;28;20217;-53
2023/04/05 06:28:54;;;;;;;4.82;3.53;;;;;;;;;;4991228;28;20561;-53
2023/04/05 06:31:25;;;;;;;4.50;3.53;;;;;;;;;;4991069;28;20209;-53
2023/04/05 06:33:51;;;;;;;4.07;3.08;;;;;;;;;;4985588;28;20173;-53
2023/04/05 06:36:17;;;;;;;5.60;4.00;;;;;;;;;;4992883;28;20244;-53
2023/04/05 06:38:43;;;;;;;5.60;3.75;;;;;;;;;;4995730;28;20207;-53
2023/04/05 06:41:09;;;;;;;4.80;3.63;;;;;;;;;;4987892;28;20227;-53
2023/04/05 06:43:34;;;;;;;4.63;3.22;;;;;;;;;;4994975;28;20891;-53
2023/04/05 06:46:00;;;;;;;4.43;3.22;;;;;;;;;;4994540;28;20199;-53
2023/04/05 06:48:28;;;;;;;4.90;3.22;;;;;;;;;;4996039;28;20268;-53
2023/04/05 06:50:57;;;;;;;4.10;3.60;;;;;;;;;;4991290;28;20197;-53
2023/04/05 06:53:25;;;;;;;4.45;3.28;;;;;;;;;;4991038;28;20177;-52
2023/04/05 06:55:51;;;;;;;4.15;3.17;;;;;;;;;;4993170;28;20231;-52
2023/04/05 06:58:17;;;;;;;4.00;3.13;;;;;;;;;;4994279;28;20545;-53
2023/04/05 07:00:43;;;;;;;4.25;2.97;;;;;;;;;;4993975;28;20197;-52
2023/04/05 07:03:09;;;;;;;3.78;2.88;;;;;;;;;;4993858;28;20556;-52
2023/04/05 07:05:35;;;;;;;5.50;3.47;;;;;;;;;;4994277;28;20223;-52
2023/04/05 07:08:01;;;;;;;3.15;2.80;;;;;;;;;;4993596;28;20213;-52
2023/04/05 07:10:27;;;;;;;4.10;3.10;;;;;;;;;;4994004;28;20232;-52
2023/04/05 07:12:53;;;;;;;3.72;3.22;;;;;;;;;;4994983;28;20453;-52
2023/04/05 07:15:19;;;;;;;4.07;2.80;;;;;;;;;;5005263;28;20174;-53
2023/04/05 07:17:45;;;;;;;6.88;3.10;;;;;;;;;;5008605;28;20204;-53
2023/04/05 07:20:11;;;;;;;5.15;3.63;;;;;;;;;;4995200;28;20592;-53
2023/04/05 07:22:37;;;;;;;4.82;3.25;;;;;;;;;;4995576;28;20231;-53
2023/04/05 07:25:04;;;;;;;4.38;2.97;;;;;;;;;;4995312;28;20181;-53
2023/04/05 07:27:30;;;;;;;3.80;3.00;;;;;;;;;;4994250;28;20224;-53
2023/04/05 07:29:57;;;;;;;3.65;2.72;;;;;;;;;;4995242;28;20603;-53
2023/04/05 07:32:23;;;;;;;6.13;2.97;;;;;;;;;;4987509;28;20308;-53
2023/04/05 07:34:48;;;;;;;4.38;2.78;;;;;;;;;;4995179;28;20256;-53
2023/04/05 07:37:14;;;;;;;3.25;2.75;;;;;;;;;;4994532;28;20620;-53
2023/04/05 07:39:40;;;;;;;3.45;2.70;;;;;;;;;;4995062;28;20180;-53
2023/04/05 07:42:06;;;;;;;4.55;2.90;;;;;;;;;;4995169;28;20223;-53
2023/04/05 07:44:32;;;;;;;4.45;2.70;;;;;;;;;;4999689;28;20429;-53
2023/04/05 07:46:58;;;;;;;3.45;3.10;;;;;;;;;;5014475;28;20195;-53
2023/04/05 07:49:25;;;;;;;3.45;2.80;;;;;;;;;;4995361;28;20184;-54
2023/04/05 07:51:53;;;;;;;3.78;2.90;;;;;;;;;;4994987;28;20185;-54
2023/04/05 07:54:19;;;;;;;3.45;2.75;;;;;;;;;;4994199;28;20183;-54
2023/04/05 07:56:45;;;;;;;3.15;2.53;;;;;;;;;;4995194;28;20260;-55
2023/04/05 07:59:12;;;;;;;3.10;2.53;;;;;;;;;;4995214;28;20177;-55
2023/04/05 08:01:38;;;;;;;4.03;2.47;;;;;;;;;;4995075;28;20242;-55
2023/04/05 08:04:04;;;;;;;4.65;2.70;;;;;;;;;;4994204;28;20419;-55
2023/04/05 08:06:30;;;;;;;3.05;2.75;;;;;;;;;;4994436;28;20528;-55
2023/04/05 08:08:56;;;;;;;3.70;2.78;;;;;;;;;;4994679;28;20252;-55
2023/04/05 08:11:22;;;;;;;2.55;2.20;;;;;;;;;;4994602;28;20604;-55
2023/04/05 08:13:48;;;;;;;3.30;2.58;;;;;;;;;;4994729;28;20256;-55
2023/04/05 08:16:14;;;;;;;3.00;2.40;;;;;;;;;;5009041;28;20181;-55
2023/04/05 08:18:40;;;;;;;4.25;2.60;;;;;;;;;;4995158;28;20180;-54
2023/04/05 08:21:06;;;;;;;3.30;2.70;;;;;;;;;;4995092;28;20196;-54
2023/04/05 08:23:32;;;;;;;2.72;2.33;;;;;;;;;;4994026;28;20304;-54
2023/04/05 08:25:58;;;;;;;2.92;2.40;;;;;;;;;;4995296;28;20180;-54
2023/04/05 08:28:24;;;;;;;3.72;2.17;;;;;;;;;;4997310;28;20196;-54
2023/04/05 08:30:54;;;;;;;3.63;2.35;;;;;;;;;;4998804;28;20275;-54
2023/04/05 08:33:20;;;;;;;3.70;2.72;;;;;;;;;;4997921;28;20181;-54
2023/04/05 08:35:46;;;;;;;3.88;2.25;;;;;;;;;;4998220;28;20350;-54
2023/04/05 08:38:12;;;;;;;4.85;2.22;;;;;;;;;;4998503;28;20188;-54
2023/04/05 08:40:45;;;;;;;3.67;2.25;;;;;;;;;;4998664;28;20449;-54
2023/04/05 08:43:20;;;;;;;4.20;2.30;;;;;;;;;;4994342;28;20181;-54
2023/04/05 08:45:49;;;;;;;2.20;1.92;;;;;;;;;;4991823;28;20189;-54
2023/04/05 08:48:15;;;;;;;2.30;2.10;;;;;;;;;;4995229;28;20181;-54
2023/04/05 08:50:41;;;;;;;3.47;2.10;;;;;;;;;;4998250;28;20220;-54
2023/04/05 08:53:11;;;;;;;2.70;1.83;;;;;;;;;;4997786;28;20181;-54
2023/04/05 08:55:37;;;;;;;2.20;2.00;;;;;;;;;;4998238;28;20583;-54
2023/04/05 08:58:07;;;;;;;2.67;1.95;;;;;;;;;;4997846;28;20185;-54
2023/04/05 09:00:33;;;;;;;1.90;1.80;;;;;;;;;;4991909;28;20636;-54
2023/04/05 09:03:01;;;;;;;2.88;2.17;;;;;;;;;;4997666;28;20472;-54
2023/04/05 09:05:28;;;;;;;2.28;2.00;;;;;;;;;;4988838;28;20181;-54
2023/04/05 09:07:54;;;;;;;3.00;1.77;;;;;;;;;;4996426;28;20284;-54
2023/04/05 09:10:20;;;;;;;2.60;1.92;;;;;;;;;;4994924;28;20205;-54
2023/04/05 09:12:47;;;;;;;2.28;1.80;;;;;;;;;;4996306;28;20553;-54
2023/04/05 09:15:13;;;;;;;3.53;2.28;;;;;;;;;;4995962;28;20204;-54
2023/04/05 09:17:41;;;;;;;3.38;2.10;;;;;;;;;;4996970;28;20185;-54
2023/04/05 09:20:07;;;;;;;2.20;1.80;;;;;;;;;;4992585;28;20204;-54
2023/04/05 09:22:41;;;;;;;2.72;1.90;;;;;;;;;;4995513;28;20189;-54
2023/04/05 09:25:07;;;;;;;2.38;2.00;;;;;;;;;;4993544;28;20259;-54
2023/04/05 09:27:33;;;;;;;2.40;2.00;;;;;;;;;;4995959;28;20195;-54
2023/04/05 09:29:59;;;;;;;1.70;1.60;;;;;;;;;;4995516;28;20216;-54
2023/04/05 09:32:28;;;;;;;2.17;1.95;;;;;;;;;;4996340;28;20224;-54
2023/04/05 09:34:53;;;;;;;2.83;2.00;;;;;;;;;;4993279;28;20615;-54
2023/04/05 09:37:21;;;;;;;1.90;1.67;;;;;;;;;;4993184;28;20198;-54
2023/04/05 09:39:48;;;;;;;2.10;1.83;;;;;;;;;;4995610;28;20196;-54
2023/04/05 09:42:15;;;;;;;2.72;2.00;;;;;;;;;;4996456;28;20196;-54
2023/04/05 09:44:52;;;;;;;2.13;1.92;;;;;;;;;;5000708;28;20176;-54
2023/04/05 09:47:18;;;;;;;2.65;1.73;;;;;;;;;;4996614;28;20196;-54
2023/04/05 09:49:45;;;;;;;4.10;1.95;;;;;;;;;;4996490;28;20248;-54
2023/04/05 09:52:20;;;;;;;1.85;1.70;;;;;;;;;;4994540;28;20204;-54
2023/04/05 09:54:46;;;;;;;1.95;1.50;;;;;;;;;;4994691;28;20189;-54
2023/04/05 09:57:12;;;;;;;2.00;1.52;;;;;;;;;;4990559;28;20235;-54
2023/04/05 09:59:39;;;;;;;1.70;1.60;;;;;;;;;;4994966;28;20185;-55
2023/04/05 10:02:05;;;;;;;1.60;1.50;;;;;;;;;;4992072;28;20197;-54
2023/04/05 10:04:47;;;;;;;1.83;1.63;;;;;;;;;;4994563;28;20222;-54
2023/04/05 10:07:13;;;;;;;2.75;1.90;;;;;;;;;;4995277;28;20212;-54
2023/04/05 10:09:40;;;;;;;1.70;1.60;;;;;;;;;;4995969;28;20564;-54
2023/04/05 10:12:07;;;;;;;2.50;1.80;;;;;;;;;;4995855;28;20219;-53
2023/04/05 10:14:33;;;;;;;1.77;1.50;;;;;;;;;;4992564;28;20199;-53
2023/04/05 10:17:08;;;;;;;1.83;1.63;;;;;;;;;;4990420;28;20561;-54
2023/04/05 10:19:45;;;;;;;3.03;1.70;;;;;;;;;;4994065;28;20165;-54
2023/04/05 10:22:14;;;;;;;1.42;1.33;;;;;;;;;;4993347;28;20264;-54
2023/04/05 10:24:45;;;;;;;1.77;1.67;;;;;;;;;;4993897;28;20212;-54
2023/04/05 10:27:20;;;;;;;2.38;1.60;;;;;;;;;;4991902;28;20209;-54
2023/04/05 10:30:01;;;;;;;1.77;1.45;;;;;;;;;;4994077;28;20219;-54
2023/04/05 10:32:41;;;;;;;2.67;1.70;;;;;;;;;;4987552;28;20217;-54
2023/04/05 10:35:07;;;;;;;3.55;1.50;;;;;;;;;;4994829;28;20461;-54
2023/04/05 10:37:51;;;;;;;1.33;1.23;;;;;;;;;;4988965;28;20287;-54
2023/04/05 10:40:18;;;;;;;1.85;1.58;;;;;;;;;;4994869;28;20212;-54
2023/04/05 10:42:46;;;;;;;2.55;1.40;;;;;;;;;;4995567;28;20215;-54
2023/04/05 10:45:15;;;;;;;2.13;1.70;;;;;;;;;;4993497;28;20232;-54
2023/04/05 10:48:05;;;;;;;1.77;1.27;;;;;;;;;;4995875;28;20201;-54
2023/04/05 10:50:31;;;;;;;2.90;1.73;;;;;;;;;;4993384;28;20481;-54
2023/04/05 10:52:59;;;;;;;1.50;1.40;;;;;;;;;;4995423;28;20809;-54
2023/04/05 10:55:25;;;;;;;3.05;1.90;;;;;;;;;;4989116;28;20455;-54
2023/04/05 10:57:53;;;;;;;1.40;1.30;;;;;;;;;;4995933;28;20228;-54
2023/04/05 11:00:20;;;;;;;2.85;1.35;;;;;;;;;;4994225;28;20491;-54
2023/04/05 11:02:48;;;;;;;3.35;1.50;;;;;;;;;;4992536;28;20264;-54
2023/04/05 11:05:34;;;;;;;1.98;1.35;;;;;;;;;;4994046;28;20177;-54
2023/04/05 11:08:04;;;;;;;1.50;1.35;;;;;;;;;;4988465;28;20205;-55
2023/04/05 11:10:31;;;;;;;1.98;1.60;;;;;;;;;;4994760;28;20205;-54
2023/04/05 11:12:57;;;;;;;1.55;1.40;;;;;;;;;;4994823;28;20239;-54
2023/04/05 11:15:26;;;;;;;2.58;1.48;;;;;;;;;;4991720;28;20185;-54
2023/04/05 11:18:03;;;;;;;3.75;1.45;;;;;;;;;;4986793;28;20479;-55
2023/04/05 11:20:40;;;;;;;2.15;1.30;;;;;;;;;;4990102;28;20188;-55
2023/04/05 11:23:06;;;;;;;1.27;1.17;;;;;;;;;;4992113;28;20220;-55
2023/04/05 11:25:36;;;;;;;3.90;1.30;;;;;;;;;;4993043;28;20304;-55
2023/04/05 11:28:04;;;;;;;1.40;1.20;;;;;;;;;;4993716;28;20189;-55
2023/04/05 11:30:45;;;;;;;1.45;1.10;;;;;;;;;;4988561;28;20461;-55
2023/04/05 11:33:11;;;;;;;1.40;1.30;;;;;;;;;;4995436;28;20560;-55
2023/04/05 11:35:38;;;;;;;1.98;1.35;;;;;;;;;;4992143;28;20181;-55
2023/04/05 11:38:09;;;;;;;1.55;1.10;;;;;;;;;;4994060;28;20193;-55
2023/04/05 11:40:36;;;;;;;2.08;1.40;;;;;;;;;;4992646;28;20185;-55
2023/04/05 11:43:10;;;;;;;1.30;1.20;;;;;;;;;;4995023;28;20181;-55
2023/04/05 11:45:37;;;;;;;1.30;1.20;;;;;;;;;;4993691;28;20184;-55
2023/04/05 11:48:10;;;;;;;1.30;1.20;;;;;;;;;;4989726;28;20189;-55
2023/04/05 11:50:37;;;;;;;2.55;1.30;;;;;;;;;;4993533;28;20233;-55
2023/04/05 11:53:09;;;;;;;2.28;1.48;;;;;;;;;;4993677;28;20227;-55
2023/04/05 11:55:35;;;;;;;1.55;1.23;;;;;;;;;;4992850;28;20451;-55
2023/04/05 11:58:01;;;;;;;1.30;1.10;;;;;;;;;;4993718;28;20181;-55
2023/04/05 12:00:27;;;;;;;1.25;1.15;;;;;;;;;;4993515;28;20610;-55
2023/04/05 12:02:56;;;;;;;4.88;1.45;;;;;;;;;;4994090;28;20269;-55
2023/04/05 12:05:22;;;;;;;1.88;1.25;;;;;;;;;;4993448;28;20196;-55
2023/04/05 12:07:54;;;;;;;1.73;1.30;;;;;;;;;;4994803;28;20443;-55
2023/04/05 12:10:20;;;;;;;1.40;1.10;;;;;;;;;;4992589;28;20209;-55
2023/04/05 12:12:47;;;;;;;1.33;1.02;;;;;;;;;;4988886;28;20169;-55
2023/04/05 12:15:14;;;;;;;1.55;1.10;;;;;;;;;;4988033;28;20913;-55
2023/04/05 12:17:48;;;;;;;1.20;1.10;;;;;;;;;;4982282;28;20191;-55
2023/04/05 12:20:16;;;;;;;1.83;1.30;;;;;;;;;;4980171;28;20196;-55
2023/04/05 12:22:43;;;;;;;1.13;0.90;;;;;;;;;;4988629;28;20188;-55
2023/04/05 12:25:09;;;;;;;1.42;1.17;;;;;;;;;;4992993;28;20189;-55
2023/04/05 12:27:35;;;;;;;1.20;1.10;;;;;;;;;;4992824;28;20192;-55
2023/04/05 12:30:05;;;;;;;1.88;1.13;;;;;;;;;;4993739;28;20212;-55
2023/04/05 12:32:50;;;;;;;1.15;0.95;;;;;;;;;;4994097;28;20209;-55
2023/04/05 12:35:19;;;;;;;3.42;1.27;;;;;;;;;;4993052;28;20252;-55
2023/04/05 12:37:46;;;;;;;1.45;1.20;;;;;;;;;;4984690;28;20277;-55
2023/04/05 12:40:12;;;;;;;3.22;1.33;;;;;;;;;;4984426;28;20212;-55
2023/04/05 12:42:39;;;;;;;3.50;1.08;;;;;;;;;;4994071;28;20198;-55
2023/04/05 12:45:05;;;;;;;2.03;0.90;;;;;;;;;;4991630;28;20320;-55
2023/04/05 12:47:34;;;;;;;0.85;0.82;;;;;;;;;;4992377;28;20178;-55
2023/04/05 12:50:13;;;;;;;1.08;0.90;;;;;;;;;;4988815;28;20212;-55
2023/04/05 12:52:50;;;;;;;1.20;1.02;;;;;;;;;;4986792;28;20480;-55
2023/04/05 12:55:16;;;;;;;1.35;1.00;;;;;;;;;;4987001;28;20185;-55
2023/04/05 12:57:42;;;;;;;0.88;0.85;;;;;;;;;;4993194;28;20204;-55
2023/04/05 13:00:09;;;;;;;2.10;1.17;;;;;;;;;;4994139;28;20202;-55
2023/04/05 13:02:35;;;;;;;1.90;1.02;;;;;;;;;;4992019;28;20199;-55
2023/04/05 13:05:01;;;;;;;2.13;0.90;;;;;;;;;;4993040;28;20189;-55
2023/04/05 13:07:27;;;;;;;1.15;1.00;;;;;;;;;;4986987;28;20189;-55
2023/04/05 13:09:53;;;;;;;1.00;1.00;;;;;;;;;;4990493;28;20205;-55
2023/04/05 13:12:19;;;;;;;2.13;1.20;;;;;;;;;;4991299;28;20186;-55
2023/04/05 13:14:45;;;;;;;1.08;1.00;;;;;;;;;;4996983;28;20239;-55
2023/04/05 13:17:11;;;;;;;1.17;1.08;;;;;;;;;;4996245;28;20564;-55
2023/04/05 13:19:37;;;;;;;1.05;0.85;;;;;;;;;;4994959;28;20181;-55
2023/04/05 13:22:02;;;;;;;0.80;0.80;;;;;;;;;;4993026;28;20182;-55
2023/04/05 13:24:28;;;;;;;1.27;0.82;;;;;;;;;;4995701;28;20587;-55
2023/04/05 13:26:54;;;;;;;2.05;1.10;;;;;;;;;;4992594;28;20269;-55
2023/04/05 13:29:20;;;;;;;0.88;0.88;;;;;;;;;;4995587;28;20193;-55
2023/04/05 13:31:46;;;;;;;1.63;1.00;;;;;;;;;;4993487;28;20217;-55
2023/04/05 13:34:12;;;;;;;1.00;0.90;;;;;;;;;;4989716;28;20316;-55
2023/04/05 13:36:38;;;;;;;1.30;0.90;;;;;;;;;;4987097;28;20548;-55
2023/04/05 13:39:04;;;;;;;0.95;0.80;;;;;;;;;;4987057;28;20221;-55
2023/04/05 13:41:30;;;;;;;1.27;1.00;;;;;;;;;;4986754;28;20190;-55
2023/04/05 13:43:55;;;;;;;1.08;0.95;;;;;;;;;;4994148;28;20201;-55
2023/04/05 13:46:21;;;;;;;1.30;0.90;;;;;;;;;;4994007;28;20193;-55
2023/04/05 13:48:47;;;;;;;2.03;1.13;;;;;;;;;;4988683;28;20268;-55
2023/04/05 13:51:13;;;;;;;1.08;0.98;;;;;;;;;;4995400;28;20295;-55
2023/04/05 13:53:39;;;;;;;1.70;1.00;;;;;;;;;;4989871;28;20695;-55
2023/04/05 13:56:05;;;;;;;0.80;0.80;;;;;;;;;;4992477;28;20177;-55
2023/04/05 13:58:31;;;;;;;0.98;0.88;;;;;;;;;;4993466;28;20185;-55
2023/04/05 14:00:57;;;;;;;1.35;0.82;;;;;;;;;;4994895;28;20236;-55
2023/04/05 14:03:24;;;;;;;1.27;1.00;;;;;;;;;;4990667;28;20185;-55
2023/04/05 14:05:50;;;;;;;0.90;0.90;;;;;;;;;;4988023;28;20177;-55
2023/04/05 14:08:17;;;;;;;1.13;1.00;;;;;;;;;;4992994;28;20212;-55
2023/04/05 14:10:43;;;;;;;1.65;1.02;;;;;;;;;;4995088;28;20313;-55
2023/04/05 14:13:10;;;;;;;1.00;0.90;;;;;;;;;;4994845;28;20581;-55
2023/04/05 14:15:37;;;;;;;1.17;0.77;;;;;;;;;;4993440;28;20177;-55
2023/04/05 14:18:03;;;;;;;1.20;1.10;;;;;;;;;;4997513;28;20196;-55
2023/04/05 14:20:29;;;;;;;0.82;0.82;;;;;;;;;;4994860;28;20193;-55
2023/04/05 14:22:55;;;;;;;1.13;0.90;;;;;;;;;;4993747;28;20183;-55
2023/04/05 14:25:21;;;;;;;1.08;1.00;;;;;;;;;;4991718;28;20181;-55
2023/04/05 14:27:47;;;;;;;1.58;0.90;;;;;;;;;;4987342;28;20268;-56
2023/04/05 14:30:13;;;;;;;1.40;1.30;;;;;;;;;;4991774;28;20223;-55
2023/04/05 14:32:39;;;;;;;1.10;0.88;;;;;;;;;;4991830;28;20507;-55
2023/04/05 14:35:05;;;;;;;1.00;0.77;;;;;;;;;;4993118;28;20208;-55
2023/04/05 14:37:31;;;;;;;1.42;0.80;;;;;;;;;;4985237;28;20208;-55